• Join FlightAware (Why Join?)
  • Login
  • US Flag 
01:08AM EST


 

Airport Tracker/Info


-or-


 

Live Flight TrackerFlight Track Log ✈ ASQ4209 ✈ 22-Jul-2013 ✈ KBTR - KIAH

Flight Track Log - Related Links

Times and Time Zones

All times are in EDT time to prevent confusion due to time zone crossing. See the ASQ4209 flight status page for this flight to view local times or setup timezone preferences in your user account.

Time Position Orientation Groundspeed Altitude Reporting Facility
EDT Latitude Longitude Course Direction KTS MPH feet Rate Location/Type
02:59PM 30.4603 -91.2733 250° West 224 258 5,000  Level Houston Center
03:00PM 30.4711 -91.5114 257° West  Level FlightAware Approximate
03:00PM 30.4317 -91.3436 245° Southwest 232 267 7,500  Level Houston Center
03:01PM 30.4521 -91.6064 257° West  Level FlightAware Approximate
03:01PM 30.3922 -91.4144 237° Southwest 250 288 9,800  Level Houston Center
03:02PM 30.4230 -91.6962 227° Southwest  Level FlightAware Approximate
03:02PM 30.3519 -91.4925 239° Southwest 277 319 10,800  Level Houston Center
03:03PM 30.3617 -91.7726 226° Southwest  Level FlightAware Approximate
03:03PM 30.2981 -91.5819 235° Southwest 322 371 12,000  Level Houston Center
03:04PM 30.2486 -91.6756 239° Southwest 339 390 13,400 1,380 Climbing Houston Center
03:05PM 30.1914 -91.7844 239° Southwest 347 399 14,900 1,320 Climbing Houston Center
03:06PM 30.1381 -91.8825 238° Southwest 356 410 16,200 1,080 Climbing Houston Center
03:07PM 30.0819 -91.9828 237° Southwest 369 425 17,200 960 Climbing Houston Center
03:08PM 30.0264 -92.0853 238° Southwest 375 432 18,300 1,200 Climbing Houston Center
03:09PM 29.9600 -92.2086 238° Southwest 377 434 19,700 780 Climbing Houston Center
03:10PM 29.9017 -92.3158 238° Southwest 389 448 20,000 120 Climbing Houston Center
03:11PM 29.8547 -92.4386 246° West 414 476 20,000  Level Houston Center
03:12PM 29.8336 -92.5739 260° West 428 493 20,000  Level Houston Center
03:13PM 29.8114 -92.7067 259° West 423 487 20,000  Level Houston Center
03:14PM 29.7900 -92.8392 259° West 422 486 20,000  Level Houston Center
03:15PM 29.7675 -92.9736 259° West 424 488 20,000  Level Houston Center
03:16PM 29.7361 -93.1608 259° West 425 489 20,000  Level Houston Center
03:17PM 29.7136 -93.2944 259° West 424 488 20,000 -60 Level Houston Center
03:18PM 29.6911 -93.4275 259° West 424 488 19,900  Descending Houston Center
03:19PM 29.6694 -93.5617 260° West 424 488 20,000  Climbing Houston Center
03:20PM 29.6456 -93.6939 258° West 422 486 20,000 -540 Level Houston Center
03:21PM 29.6231 -93.8275 259° West 424 488 19,000 -1,500 Descending Houston Center
03:22PM 29.6042 -93.9342 259° West 397 457 17,400 -2,040 Descending Houston Center
03:23PM 29.5900 -94.0228 260° West 386 444 16,000 -1,860 Descending Houston Center
03:24PM 29.5811 -94.0717 258° West 392 451 15,000 -1,800 Descending Houston Center
03:25PM 29.5583 -94.1986 258° West 380 437 13,100 -1,020 Descending Houston Center
03:26PM 29.5392 -94.3139 259° West 359 413 13,000 -420 Descending Houston Center
03:27PM 29.5653 -94.4172 286° West 354 407 12,300 -1,200 Descending Houston Center
03:28PM 29.6108 -94.5256 296° West 318 366 10,600 -1,620 Descending Houston Center
03:29PM 29.6464 -94.6086 296° West 296 341 9,000 -1,740 Descending Houston Center
03:30PM 29.6944 -94.6778 309° West 293 337 7,100 -1,740 Descending Houston Center
03:31PM 29.7503 -94.7364 318° Northwest 278 320 5,500 -1,500 Descending Houston Center
03:32PM 29.8019 -94.7953 315° West 266 306 4,100 -780 Descending Houston Center
03:33PM 29.8614 -94.8636 315° West 256 295 4,000 -360 Descending Houston Center
03:34PM 29.8997 -94.9286 304° West 248 285 3,400 -540 Descending Houston Center
03:35PM 29.9278 -95.0011 294° West 250 288 3,000 -600 Descending Houston Center
03:36PM 29.9669 -95.1042 294° West 250 288 2,100 -540 Descending Houston Center
03:37PM 29.9764 -95.1428 286° West 241 277 2,000 -300 Descending Houston Center
03:38PM 29.9781 -95.2147 272° West 204 235 1,600 -420 Descending Houston Center